地図

経路データ

SID SEASON NUMBER BASIN SUBBASIN NAME ISO_TIME NATURE LAT LON WMO_WIND WMO_PRES WMO_AGENCY TRACK_TYPE DIST2LAND LANDFALL IFLAG USA_AGENCY USA_ATCF_ID USA_LAT USA_LON USA_RECORD USA_STATUS USA_WIND USA_PRES USA_SSHS USA_R34_NE USA_R34_SE USA_R34_SW USA_R34_NW USA_R50_NE USA_R50_SE USA_R50_SW USA_R50_NW USA_R64_NE USA_R64_SE USA_R64_SW USA_R64_NW USA_POCI USA_ROCI USA_RMW USA_EYE TOKYO_LAT TOKYO_LON TOKYO_GRADE TOKYO_WIND TOKYO_PRES TOKYO_R50_DIR TOKYO_R50_LONG TOKYO_R50_SHORT TOKYO_R30_DIR TOKYO_R30_LONG TOKYO_R30_SHORT TOKYO_LAND CMA_LAT CMA_LON CMA_CAT CMA_WIND CMA_PRES HKO_LAT HKO_LON HKO_CAT HKO_WIND HKO_PRES NEWDELHI_LAT NEWDELHI_LON NEWDELHI_GRADE NEWDELHI_WIND NEWDELHI_PRES NEWDELHI_CI NEWDELHI_DP NEWDELHI_POCI REUNION_LAT REUNION_LON REUNION_TYPE REUNION_WIND REUNION_PRES REUNION_TNUM REUNION_CI REUNION_RMW REUNION_R34_NE REUNION_R34_SE REUNION_R34_SW REUNION_R34_NW REUNION_R50_NE REUNION_R50_SE REUNION_R50_SW REUNION_R50_NW REUNION_R64_NE REUNION_R64_SE REUNION_R64_SW REUNION_R64_NW BOM_LAT BOM_LON BOM_TYPE BOM_WIND BOM_PRES BOM_TNUM BOM_CI BOM_RMW BOM_R34_NE BOM_R34_SE BOM_R34_SW BOM_R34_NW BOM_R50_NE BOM_R50_SE BOM_R50_SW BOM_R50_NW BOM_R64_NE BOM_R64_SE BOM_R64_SW BOM_R64_NW BOM_ROCI BOM_POCI BOM_EYE BOM_POS_METHOD BOM_PRES_METHOD NADI_LAT NADI_LON NADI_CAT NADI_WIND NADI_PRES WELLINGTON_LAT WELLINGTON_LON WELLINGTON_WIND WELLINGTON_PRES DS824_LAT DS824_LON DS824_STAGE DS824_WIND DS824_PRES TD9636_LAT TD9636_LON TD9636_STAGE TD9636_WIND TD9636_PRES TD9635_LAT TD9635_LON TD9635_WIND TD9635_PRES TD9635_ROCI NEUMANN_LAT NEUMANN_LON NEUMANN_CLASS NEUMANN_WIND NEUMANN_PRES MLC_LAT MLC_LON MLC_CLASS MLC_WIND MLC_PRES USA_GUST BOM_GUST BOM_GUST_PER REUNION_GUST REUNION_GUST_PER USA_SEAHGT USA_SEARAD_NE USA_SEARAD_SE USA_SEARAD_SW USA_SEARAD_NW STORM_SPEED STORM_DIR
1896200N19146 1896 17 WP MM NOT_NAMED 1896-07-17 16:00:00 NR 19.0000 146.000 main 1874 1770 __________O___ -1 19.0000 146.000 7 72 272
1896200N19146 1896 17 WP MM NOT_NAMED 1896-07-17 18:00:00 NR 19.0773 143.454 main 1770 1611 __________P___ -1 19.0773 143.454 7 70 271
1896200N19146 1896 17 WP MM NOT_NAMED 1896-07-17 21:00:00 NR 19.1305 139.796 main 1611 1416 __________P___ -1 19.1305 139.796 7 65 270
1896200N19146 1896 17 WP MM NOT_NAMED 1896-07-18 00:00:00 NR 19.1269 136.609 main 1416 1195 __________P___ -1 19.1269 136.609 7 53 270
1896200N19146 1896 17 WP MM NOT_NAMED 1896-07-18 03:00:00 NR 19.1041 134.189 main 1195 1149 __________P___ -1 19.1041 134.189 7 43 269
1896200N19146 1896 17 WP MM NOT_NAMED 1896-07-18 04:00:00 NR 19.1000 133.600 main 1140 1067 __________O___ -1 19.1000 133.600 7 27 270
1896200N19146 1896 17 WP MM NOT_NAMED 1896-07-18 06:00:00 NR 19.1055 132.778 main 1067 1023 __________P___ -1 19.1055 132.778 7 15 272
1896200N19146 1896 17 WP MM NOT_NAMED 1896-07-18 09:00:00 NR 19.1519 132.251 main 1029 1021 __________P___ -1 19.1519 132.251 7 5 285
1896200N19146 1896 17 WP MM NOT_NAMED 1896-07-18 12:00:00 NR 19.2394 132.259 main 1029 1029 __________P___ -1 19.2394 132.259 7 3 43
1896200N19146 1896 17 WP MM NOT_NAMED 1896-07-18 15:00:00 NR 19.3565 132.454 main 1059 1059 __________P___ -1 19.3565 132.454 7 4 55
1896200N19146 1896 17 WP MM NOT_NAMED 1896-07-18 16:00:00 NR 19.4000 132.500 main 1059 1048 __________O___ -1 19.4000 132.500 7 3 308
1896200N19146 1896 17 WP MM NOT_NAMED 1896-07-18 18:00:00 NR 19.4619 132.309 main 1048 1028 __________P___ -1 19.4619 132.309 7 6 291
1896200N19146 1896 17 WP MM NOT_NAMED 1896-07-18 21:00:00 NR 19.5732 132.021 main 1028 998 __________P___ -1 19.5732 132.021 7 6 296
1896200N19146 1896 17 WP MM NOT_NAMED 1896-07-19 00:00:00 NR 19.7205 131.743 main 998 980 __________P___ -1 19.7205 131.743 7 6 304
1896200N19146 1896 17 WP MM NOT_NAMED 1896-07-19 03:00:00 NR 19.9195 131.481 main 980 972 __________P___ -1 19.9195 131.481 7 6 311
1896200N19146 1896 17 WP MM NOT_NAMED 1896-07-19 04:00:00 NR 20.0000 131.400 main 972 955 __________O___ -1 20.0000 131.400 7 7 321
1896200N19146 1896 17 WP MM NOT_NAMED 1896-07-19 06:00:00 NR 20.1901 131.247 main 955 941 __________P___ -1 20.1901 131.247 7 8 327
1896200N19146 1896 17 WP MM NOT_NAMED 1896-07-19 09:00:00 NR 20.5260 131.036 main 941 932 __________P___ -1 20.5260 131.036 7 8 332
1896200N19146 1896 17 WP MM NOT_NAMED 1896-07-19 12:00:00 NR 20.8976 130.842 main 932 929 __________P___ -1 20.8976 130.842 7 8 335
1896200N19146 1896 17 WP MM NOT_NAMED 1896-07-19 15:00:00 NR 21.2768 130.660 main 936 926 __________P___ -1 21.2768 130.660 7 8 336
1896200N19146 1896 17 WP MM NOT_NAMED 1896-07-19 16:00:00 NR 21.4000 130.600 main 930 924 __________O___ -1 21.4000 130.600 7 8 334
1896200N19146 1896 17 WP MM NOT_NAMED 1896-07-19 18:00:00 NR 21.6328 130.472 main 928 901 __________P___ -1 21.6328 130.472 7 8 333
1896200N19146 1896 17 WP MM NOT_NAMED 1896-07-19 21:00:00 NR 21.9760 130.287 main 901 871 __________P___ -1 21.9760 130.287 7 8 334
1896200N19146 1896 17 WP MM NOT_NAMED 1896-07-20 00:00:00 NR 22.3037 130.112 main 871 851 __________P___ -1 22.3037 130.112 7 7 334
1896200N19146 1896 17 WP MM NOT_NAMED 1896-07-20 03:00:00 NR 22.6063 129.950 main 851 839 __________P___ -1 22.6063 129.950 7 7 334
1896200N19146 1896 17 WP MM NOT_NAMED 1896-07-20 04:00:00 NR 22.7000 129.900 main 839 823 __________O___ -1 22.7000 129.900 3 6 335
1896200N19146 1896 17 WP MM NOT_NAMED 1896-07-20 06:00:00 NR 22.8701 129.813 main 823 808 __________P___ -1 22.8701 129.813 3 5 335
1896200N19146 1896 17 WP MM NOT_NAMED 1896-07-20 09:00:00 NR 23.1000 129.695 main 808 793 __________P___ -1 23.1000 129.695 3 5 334
1896200N19146 1896 17 WP MM NOT_NAMED 1896-07-20 12:00:00 NR 23.3136 129.579 main 793 768 __________P___ -1 23.3136 129.579 3 5 332
1896200N19146 1896 17 WP MM NOT_NAMED 1896-07-20 15:00:00 NR 23.5265 129.449 main 768 765 __________P___ -1 23.5265 129.449 3 5 331
1896200N19146 1896 17 WP MM NOT_NAMED 1896-07-20 16:00:00 NR 23.6000 129.400 main 765 750 __________O___ -1 23.6000 129.400 4 6 328
1896200N19146 1896 17 WP MM NOT_NAMED 1896-07-20 18:00:00 NR 23.7610 129.286 main 750 726 __________P___ -1 23.7610 129.286 4 6 326
1896200N19146 1896 17 WP MM NOT_NAMED 1896-07-20 21:00:00 NR 24.0087 129.097 main 726 701 __________P___ -1 24.0087 129.097 4 6 324
1896200N19146 1896 17 WP MM NOT_NAMED 1896-07-21 00:00:00 NR 24.2612 128.891 main 701 678 __________P___ -1 24.2612 128.891 4 6 323
1896200N19146 1896 17 WP MM NOT_NAMED 1896-07-21 03:00:00 NR 24.5154 128.674 main 678 667 __________P___ -1 24.5154 128.674 4 6 322
1896200N19146 1896 17 WP MM NOT_NAMED 1896-07-21 04:00:00 NR 24.6000 128.600 main 667 655 __________O___ -1 24.6000 128.600 4 6 323
1896200N19146 1896 17 WP MM NOT_NAMED 1896-07-21 06:00:00 NR 24.7666 128.461 main 655 624 __________P___ -1 24.7666 128.461 4 6 322
1896200N19146 1896 17 WP MM NOT_NAMED 1896-07-21 09:00:00 NR 25.0165 128.246 main 624 604 __________P___ -1 25.0165 128.246 4 6 321
1896200N19146 1896 17 WP MM NOT_NAMED 1896-07-21 12:00:00 NR 25.2665 128.021 main 604 585 __________P___ -1 25.2665 128.021 4 7 320
1896200N19146 1896 17 WP MM NOT_NAMED 1896-07-21 15:00:00 NR 25.5166 127.783 main 585 576 __________P___ -1 25.5166 127.783 4 7 319
1896200N19146 1896 17 WP MM NOT_NAMED 1896-07-21 16:00:00 NR 25.6000 127.700 main 576 559 __________O___ -1 25.6000 127.700 4 7 318
1896200N19146 1896 17 WP MM NOT_NAMED 1896-07-21 18:00:00 NR 25.7669 127.529 main 559 541 __________P___ -1 25.7669 127.529 4 7 317
1896200N19146 1896 17 WP MM NOT_NAMED 1896-07-21 21:00:00 NR 26.0171 127.261 main 543 518 __________P___ -1 26.0171 127.261 4 7 315
1896200N19146 1896 17 WP MM NOT_NAMED 1896-07-22 00:00:00 NR 26.2672 126.982 main 521 499 __________P___ -1 26.2672 126.982 4 7 315
1896200N19146 1896 17 WP MM NOT_NAMED 1896-07-22 03:00:00 NR 26.5169 126.696 main 499 493 __________P___ -1 26.5169 126.696 4 7 314
1896200N19146 1896 17 WP MM NOT_NAMED 1896-07-22 04:00:00 NR 26.6000 126.600 main 493 __________O___ -1 26.6000 126.600 4 7 314

デジタル台風データ・検索

IBTrACS Databaseについて

本データベースは、米国NOAAが公開する1842年以降の世界の熱帯低気圧のベストトラックデータアーカイブInternational Best Track Archive for Climate Stewardship (IBTrACS)を、ウェブで閲覧しやすい形式に変換したものです。

最終更新日:2021-12-06